sensor_id;sensor_type;location;lat;lon;timestamp;pressure;altitude;pressure_sealevel;temperature;humidity
38038;BME280;23843;51.320;12.340;2022-10-14T04:32:19;100345.25;;;14.06;77.59
38038;BME280;23843;51.320;12.340;2022-10-14T04:34:45;100346.09;;;14.06;78.08
38038;BME280;23843;51.320;12.340;2022-10-14T04:37:10;100343.41;;;14.06;78.14
38038;BME280;23843;51.320;12.340;2022-10-14T04:39:36;100348.75;;;14.06;77.92
38038;BME280;23843;51.320;12.340;2022-10-14T04:42:01;100336.50;;;14.04;78.98
38038;BME280;23843;51.320;12.340;2022-10-14T04:44:26;100341.72;;;14.05;78.81
38038;BME280;23843;51.320;12.340;2022-10-14T04:46:52;100340.00;;;14.04;78.24
38038;BME280;23843;51.320;12.340;2022-10-14T04:49:19;100340.00;;;14.04;78.02
38038;BME280;23843;51.320;12.340;2022-10-14T04:51:44;100335.75;;;14.02;78.90
38038;BME280;23843;51.320;12.340;2022-10-14T04:54:09;100339.47;;;13.99;79.08
38038;BME280;23843;51.320;12.340;2022-10-14T04:56:35;100331.69;;;13.96;79.05
38038;BME280;23843;51.320;12.340;2022-10-14T04:59:00;100329.25;;;13.93;78.89
38038;BME280;23843;51.320;12.340;2022-10-14T05:01:26;100332.13;;;13.90;78.58
38038;BME280;23843;51.320;12.340;2022-10-14T05:03:51;100323.41;;;13.88;78.73
38038;BME280;23843;51.320;12.340;2022-10-14T05:06:18;100321.66;;;13.87;78.60
38038;BME280;23843;51.320;12.340;2022-10-14T05:08:43;100320.91;;;13.85;79.03
38038;BME280;23843;51.320;12.340;2022-10-14T05:11:09;100316.56;;;13.84;79.12
38038;BME280;23843;51.320;12.340;2022-10-14T05:13:35;100317.63;;;13.81;79.05
38038;BME280;23843;51.320;12.340;2022-10-14T05:16:00;100316.25;;;13.76;78.53
38038;BME280;23843;51.320;12.340;2022-10-14T05:18:26;100317.31;;;13.73;79.33
38038;BME280;23843;51.320;12.340;2022-10-14T05:20:51;100314.84;;;13.70;79.66
38038;BME280;23843;51.320;12.340;2022-10-14T05:23:18;100320.06;;;13.72;79.71
38038;BME280;23843;51.320;12.340;2022-10-14T05:25:43;100316.44;;;13.73;80.07
38038;BME280;23843;51.320;12.340;2022-10-14T05:28:09;100319.97;;;13.73;79.31
38038;BME280;23843;51.320;12.340;2022-10-14T05:30:34;100319.84;;;13.75;79.74
38038;BME280;23843;51.320;12.340;2022-10-14T05:33:00;100311.09;;;13.73;80.10
38038;BME280;23843;51.320;12.340;2022-10-14T05:35:25;100312.94;;;13.72;80.09
38038;BME280;23843;51.320;12.340;2022-10-14T05:37:53;100303.34;;;13.69;79.46
38038;BME280;23843;51.320;12.340;2022-10-14T05:40:20;100309.81;;;13.65;79.74
38038;BME280;23843;51.320;12.340;2022-10-14T05:42:46;100311.00;;;13.61;79.82
38038;BME280;23843;51.320;12.340;2022-10-14T05:45:11;100310.34;;;13.58;80.03
38038;BME280;23843;51.320;12.340;2022-10-14T05:47:36;100313.31;;;13.53;79.63
38038;BME280;23843;51.320;12.340;2022-10-14T05:50:02;100309.25;;;13.47;80.65
38038;BME280;23843;51.320;12.340;2022-10-14T05:52:28;100315.53;;;13.46;80.25
38038;BME280;23843;51.320;12.340;2022-10-14T05:54:53;100317.44;;;13.44;80.13
38038;BME280;23843;51.320;12.340;2022-10-14T05:57:20;100321.16;;;13.42;80.04
38038;BME280;23843;51.320;12.340;2022-10-14T05:59:45;100323.06;;;13.40;80.02
38038;BME280;23843;51.320;12.340;2022-10-14T06:02:10;100324.97;;;13.38;80.36
38038;BME280;23843;51.320;12.340;2022-10-14T06:04:36;100328.59;;;13.37;80.30
38038;BME280;23843;51.320;12.340;2022-10-14T06:07:01;100331.28;;;13.37;80.60
38038;BME280;23843;51.320;12.340;2022-10-14T06:09:29;100334.47;;;13.42;80.88
38038;BME280;23843;51.320;12.340;2022-10-14T06:11:54;100339.59;;;13.45;81.16
38038;BME280;23843;51.320;12.340;2022-10-14T06:14:21;100337.59;;;13.48;81.23
38038;BME280;23843;51.320;12.340;2022-10-14T06:16:48;100337.25;;;13.53;80.81
38038;BME280;23843;51.320;12.340;2022-10-14T06:19:14;100332.69;;;13.55;81.22
38038;BME280;23843;51.320;12.340;2022-10-14T06:21:39;100333.34;;;13.59;81.17
38038;BME280;23843;51.320;12.340;2022-10-14T06:24:05;100341.34;;;13.59;81.16
38038;BME280;23843;51.320;12.340;2022-10-14T06:26:30;100336.66;;;13.62;81.53
38038;BME280;23843;51.320;12.340;2022-10-14T06:28:56;100335.28;;;13.69;81.39
38038;BME280;23843;51.320;12.340;2022-10-14T06:31:22;100340.00;;;13.79;80.55
38038;BME280;23843;51.320;12.340;2022-10-14T06:33:48;100340.31;;;13.87;81.15
38038;BME280;23843;51.320;12.340;2022-10-14T06:36:13;100337.03;;;13.96;81.41
38038;BME280;23843;51.320;12.340;2022-10-14T06:38:38;100335.44;;;14.06;80.92
38038;BME280;23843;51.320;12.340;2022-10-14T06:41:04;100341.19;;;14.13;80.74
38038;BME280;23843;51.320;12.340;2022-10-14T06:43:29;100337.06;;;14.22;80.89
38038;BME280;23843;51.320;12.340;2022-10-14T06:45:55;100332.03;;;14.30;81.10
38038;BME280;23843;51.320;12.340;2022-10-14T06:48:22;100335.75;;;14.40;80.78
38038;BME280;23843;51.320;12.340;2022-10-14T06:50:47;100339.69;;;14.47;79.98
38038;BME280;23843;51.320;12.340;2022-10-14T06:53:15;100340.91;;;14.56;80.31
38038;BME280;23843;51.320;12.340;2022-10-14T06:55:40;100346.44;;;14.66;80.00
38038;BME280;23843;51.320;12.340;2022-10-14T06:58:06;100347.69;;;14.73;79.64
38038;BME280;23843;51.320;12.340;2022-10-14T07:00:31;100336.34;;;14.82;79.33
38038;BME280;23843;51.320;12.340;2022-10-14T07:02:57;100341.78;;;14.93;79.59
38038;BME280;23843;51.320;12.340;2022-10-14T07:05:24;100342.94;;;15.02;79.24
38038;BME280;23843;51.320;12.340;2022-10-14T07:07:49;100340.78;;;15.07;78.75
38038;BME280;23843;51.320;12.340;2022-10-14T07:10:15;100342.38;;;15.10;78.48
38038;BME280;23843;51.320;12.340;2022-10-14T07:12:40;100349.06;;;15.15;78.37
38038;BME280;23843;51.320;12.340;2022-10-14T07:15:07;100345.31;;;15.18;78.39
38038;BME280;23843;51.320;12.340;2022-10-14T07:17:32;100354.81;;;15.22;78.49
38038;BME280;23843;51.320;12.340;2022-10-14T07:19:57;100351.91;;;15.25;78.03
38038;BME280;23843;51.320;12.340;2022-10-14T07:22:24;100351.56;;;15.30;78.14
38038;BME280;23843;51.320;12.340;2022-10-14T07:24:50;100352.91;;;15.35;77.91
38038;BME280;23843;51.320;12.340;2022-10-14T07:27:15;100357.59;;;15.45;77.90
38038;BME280;23843;51.320;12.340;2022-10-14T07:29:40;100359.56;;;15.54;77.93
38038;BME280;23843;51.320;12.340;2022-10-14T07:32:06;100356.44;;;15.60;77.57
38038;BME280;23843;51.320;12.340;2022-10-14T07:34:31;100351.59;;;15.65;77.13
38038;BME280;23843;51.320;12.340;2022-10-14T07:36:57;100346.88;;;15.69;77.11
38038;BME280;23843;51.320;12.340;2022-10-14T07:39:23;100354.00;;;15.81;77.07
38038;BME280;23843;51.320;12.340;2022-10-14T07:41:49;100356.34;;;15.97;76.83
38038;BME280;23843;51.320;12.340;2022-10-14T07:44:14;100350.78;;;16.11;76.30
38038;BME280;23843;51.320;12.340;2022-10-14T07:46:42;100353.97;;;16.27;75.63
38038;BME280;23843;51.320;12.340;2022-10-14T07:49:11;100354.09;;;16.37;75.07
38038;BME280;23843;51.320;12.340;2022-10-14T07:51:37;100347.19;;;16.46;74.71
38038;BME280;23843;51.320;12.340;2022-10-14T07:54:05;100350.09;;;16.54;74.00
38038;BME280;23843;51.320;12.340;2022-10-14T07:56:32;100349.59;;;16.60;74.11
38038;BME280;23843;51.320;12.340;2022-10-14T07:58:57;100349.97;;;16.67;73.91
38038;BME280;23843;51.320;12.340;2022-10-14T08:01:23;100345.34;;;16.69;73.86
38038;BME280;23843;51.320;12.340;2022-10-14T08:03:48;100346.94;;;16.72;73.84
38038;BME280;23843;51.320;12.340;2022-10-14T08:06:14;100341.09;;;16.78;73.65
38038;BME280;23843;51.320;12.340;2022-10-14T08:08:40;100347.66;;;16.85;73.23
38038;BME280;23843;51.320;12.340;2022-10-14T08:11:07;100339.91;;;16.93;73.14
38038;BME280;23843;51.320;12.340;2022-10-14T08:13:35;100345.47;;;17.01;72.84
38038;BME280;23843;51.320;12.340;2022-10-14T08:16:01;100335.00;;;17.09;72.49
38038;BME280;23843;51.320;12.340;2022-10-14T08:18:26;100341.53;;;17.17;72.50
38038;BME280;23843;51.320;12.340;2022-10-14T08:20:52;100336.19;;;17.17;72.22
38038;BME280;23843;51.320;12.340;2022-10-14T08:23:17;100341.28;;;17.20;72.26
38038;BME280;23843;51.320;12.340;2022-10-14T08:25:43;100337.59;;;17.32;72.89
38038;BME280;23843;51.320;12.340;2022-10-14T08:28:09;100333.16;;;17.53;72.12
38038;BME280;23843;51.320;12.340;2022-10-14T08:30:35;100334.53;;;17.69;71.46
38038;BME280;23843;51.320;12.340;2022-10-14T08:33:01;100326.00;;;17.96;71.34
38038;BME280;23843;51.320;12.340;2022-10-14T08:35:26;100336.34;;;18.01;69.50
38038;BME280;23843;51.320;12.340;2022-10-14T08:37:55;100330.72;;;18.04;69.20
38038;BME280;23843;51.320;12.340;2022-10-14T08:40:21;100330.25;;;17.99;69.73
38038;BME280;23843;51.320;12.340;2022-10-14T08:42:50;100333.06;;;17.97;69.19
38038;BME280;23843;51.320;12.340;2022-10-14T08:45:24;100332.59;;;17.92;69.45
38038;BME280;23843;51.320;12.340;2022-10-14T08:47:52;100332.69;;;17.81;69.56
38038;BME280;23843;51.320;12.340;2022-10-14T08:50:25;100329.75;;;17.72;70.34
38038;BME280;23843;51.320;12.340;2022-10-14T08:52:55;100325.31;;;17.62;70.35
38038;BME280;23843;51.320;12.340;2022-10-14T08:55:28;100334.56;;;17.58;70.64
38038;BME280;23843;51.320;12.340;2022-10-14T08:57:57;100336.06;;;17.50;70.53
38038;BME280;23843;51.320;12.340;2022-10-14T09:00:24;100340.97;;;17.45;70.77
38038;BME280;23843;51.320;12.340;2022-10-14T09:02:51;100333.91;;;17.44;70.98
38038;BME280;23843;51.320;12.340;2022-10-14T09:05:20;100336.25;;;17.38;71.18
38038;BME280;23843;51.320;12.340;2022-10-14T09:07:46;100333.66;;;17.47;71.61
38038;BME280;23843;51.320;12.340;2022-10-14T09:10:25;100344.31;;;17.59;71.47
38038;BME280;23843;51.320;12.340;2022-10-14T09:12:52;100337.22;;;17.69;71.08
38038;BME280;23843;51.320;12.340;2022-10-14T09:15:26;100335.38;;;17.69;70.60
38038;BME280;23843;51.320;12.340;2022-10-14T09:18:02;100335.00;;;17.74;70.03
38038;BME280;23843;51.320;12.340;2022-10-14T09:20:28;100336.56;;;17.76;70.15
38038;BME280;23843;51.320;12.340;2022-10-14T09:23:01;100328.25;;;17.80;70.11
38038;BME280;23843;51.320;12.340;2022-10-14T09:25:32;100332.03;;;17.88;69.75
38038;BME280;23843;51.320;12.340;2022-10-14T09:27:58;100327.00;;;17.95;69.00
38038;BME280;23843;51.320;12.340;2022-10-14T09:30:24;100324.16;;;17.96;69.16
38038;BME280;23843;51.320;12.340;2022-10-14T09:32:51;100321.09;;;18.01;69.87
38038;BME280;23843;51.320;12.340;2022-10-14T09:35:22;100317.25;;;18.15;69.28
38038;BME280;23843;51.320;12.340;2022-10-14T09:37:49;100315.50;;;18.35;68.42
38038;BME280;23843;51.320;12.340;2022-10-14T09:40:17;100316.03;;;18.59;68.48
38038;BME280;23843;51.320;12.340;2022-10-14T09:42:48;100309.75;;;18.80;67.60
38038;BME280;23843;51.320;12.340;2022-10-14T09:45:16;100313.81;;;18.74;65.22
38038;BME280;23843;51.320;12.340;2022-10-14T09:47:49;100305.19;;;18.71;65.89
38038;BME280;23843;51.320;12.340;2022-10-14T09:50:23;100311.03;;;18.76;66.49
38038;BME280;23843;51.320;12.340;2022-10-14T09:52:52;100305.25;;;18.80;65.68
38038;BME280;23843;51.320;12.340;2022-10-14T09:55:20;100300.31;;;18.86;64.15
38038;BME280;23843;51.320;12.340;2022-10-14T09:57:46;100302.19;;;18.64;65.16
38038;BME280;23843;51.320;12.340;2022-10-14T10:00:24;100295.03;;;18.74;65.51
38038;BME280;23843;51.320;12.340;2022-10-14T10:02:49;100291.25;;;18.77;64.93
38038;BME280;23843;51.320;12.340;2022-10-14T10:05:23;100299.19;;;18.78;65.13
38038;BME280;23843;51.320;12.340;2022-10-14T10:08:03;100299.03;;;18.90;65.48
38038;BME280;23843;51.320;12.340;2022-10-14T10:10:28;100284.53;;;19.02;65.23
38038;BME280;23843;51.320;12.340;2022-10-14T10:12:54;100288.75;;;18.95;64.01
38038;BME280;23843;51.320;12.340;2022-10-14T10:15:20;100288.91;;;18.93;63.14
38038;BME280;23843;51.320;12.340;2022-10-14T10:17:46;100281.66;;;18.84;63.43
38038;BME280;23843;51.320;12.340;2022-10-14T10:20:21;100290.91;;;18.70;63.26
38038;BME280;23843;51.320;12.340;2022-10-14T10:22:48;100293.28;;;18.54;62.40
38038;BME280;23843;51.320;12.340;2022-10-14T10:25:18;100287.72;;;18.46;62.75
38038;BME280;23843;51.320;12.340;2022-10-14T10:27:45;100281.78;;;18.42;63.29
38038;BME280;23843;51.320;12.340;2022-10-14T10:30:20;100286.47;;;18.50;63.03
38038;BME280;23843;51.320;12.340;2022-10-14T10:32:54;100281.56;;;18.55;63.17
38038;BME280;23843;51.320;12.340;2022-10-14T10:35:26;100278.03;;;18.54;62.80
38038;BME280;23843;51.320;12.340;2022-10-14T10:38:04;100280.75;;;18.64;63.31
38038;BME280;23843;51.320;12.340;2022-10-14T10:40:38;100277.09;;;18.75;63.66
38038;BME280;23843;51.320;12.340;2022-10-14T10:43:13;100276.25;;;18.74;61.73
38038;BME280;23843;51.320;12.340;2022-10-14T10:45:56;100274.81;;;18.70;61.31
38038;BME280;23843;51.320;12.340;2022-10-14T10:48:30;100276.09;;;18.66;61.91
38038;BME280;23843;51.320;12.340;2022-10-14T10:50:59;100278.19;;;18.63;60.36
38038;BME280;23843;51.320;12.340;2022-10-14T10:53:50;100273.09;;;18.59;61.39
38038;BME280;23843;51.320;12.340;2022-10-14T10:56:27;100273.22;;;18.58;61.60
38038;BME280;23843;51.320;12.340;2022-10-14T10:59:14;100275.34;;;18.54;61.09
38038;BME280;23843;51.320;12.340;2022-10-14T11:01:51;100268.28;;;18.53;61.05
38038;BME280;23843;51.320;12.340;2022-10-14T11:04:27;100270.97;;;18.53;60.23
38038;BME280;23843;51.320;12.340;2022-10-14T11:07:00;100268.00;;;18.56;61.35
38038;BME280;23843;51.320;12.340;2022-10-14T11:09:34;100257.75;;;18.71;61.58
38038;BME280;23843;51.320;12.340;2022-10-14T11:12:09;100252.31;;;18.83;61.11
38038;BME280;23843;51.320;12.340;2022-10-14T11:14:47;100250.19;;;18.96;61.04
38038;BME280;23843;51.320;12.340;2022-10-14T11:17:22;100254.13;;;18.92;60.67
38038;BME280;23843;51.320;12.340;2022-10-14T11:19:53;100247.50;;;18.86;61.92
38038;BME280;23843;51.320;12.340;2022-10-14T11:22:31;100244.94;;;18.85;60.06
38038;BME280;23843;51.320;12.340;2022-10-14T11:25:15;100239.44;;;18.86;60.42
38038;BME280;23843;51.320;12.340;2022-10-14T11:27:48;100237.31;;;18.90;60.07
38038;BME280;23843;51.320;12.340;2022-10-14T11:30:17;100234.06;;;18.96;60.38
38038;BME280;23843;51.320;12.340;2022-10-14T11:32:53;100230.25;;;18.89;59.77
38038;BME280;23843;51.320;12.340;2022-10-14T11:35:31;100228.00;;;18.94;59.59
38038;BME280;23843;51.320;12.340;2022-10-14T11:38:09;100220.09;;;19.02;59.79
38038;BME280;23843;51.320;12.340;2022-10-14T11:40:44;100223.47;;;18.94;59.24
38038;BME280;23843;51.320;12.340;2022-10-14T11:43:17;100225.03;;;18.97;60.21
38038;BME280;23843;51.320;12.340;2022-10-14T11:45:49;100210.91;;;19.14;59.70
38038;BME280;23843;51.320;12.340;2022-10-14T11:48:24;100216.13;;;19.25;59.74
38038;BME280;23843;51.320;12.340;2022-10-14T11:50:55;100208.22;;;19.34;58.77
38038;BME280;23843;51.320;12.340;2022-10-14T11:53:27;100202.16;;;19.32;59.41
38038;BME280;23843;51.320;12.340;2022-10-14T11:56:01;100206.22;;;19.36;59.96
38038;BME280;23843;51.320;12.340;2022-10-14T11:58:30;100196.91;;;19.30;59.42
38038;BME280;23843;51.320;12.340;2022-10-14T12:01:14;100192.78;;;19.36;59.08
38038;BME280;23843;51.320;12.340;2022-10-14T12:03:49;100190.09;;;19.45;58.54
38038;BME280;23843;51.320;12.340;2022-10-14T12:06:23;100190.81;;;19.38;58.63
38038;BME280;23843;51.320;12.340;2022-10-14T12:08:53;100182.72;;;19.48;58.30
38038;BME280;23843;51.320;12.340;2022-10-14T12:11:26;100176.22;;;19.50;58.35
38038;BME280;23843;51.320;12.340;2022-10-14T12:13:59;100181.06;;;19.46;58.33
38038;BME280;23843;51.320;12.340;2022-10-14T12:16:26;100169.16;;;19.49;57.46
38038;BME280;23843;51.320;12.340;2022-10-14T12:18:54;100168.03;;;19.52;57.14
38038;BME280;23843;51.320;12.340;2022-10-14T12:21:24;100170.28;;;19.56;57.23
38038;BME280;23843;51.320;12.340;2022-10-14T12:23:54;100155.13;;;19.55;56.97
38038;BME280;23843;51.320;12.340;2022-10-14T12:26:44;100162.53;;;19.53;57.37
38038;BME280;23843;51.320;12.340;2022-10-14T12:29:13;100158.97;;;19.43;57.52
38038;BME280;23843;51.320;12.340;2022-10-14T12:31:40;100153.19;;;19.38;58.00
38038;BME280;23843;51.320;12.340;2022-10-14T12:40:21;100149.56;;;19.29;57.78
38038;BME280;23843;51.320;12.340;2022-10-14T12:45:35;100155.88;;;19.38;57.57
38038;BME280;23843;51.320;12.340;2022-10-14T12:48:13;100148.84;;;19.37;57.16
38038;BME280;23843;51.320;12.340;2022-10-14T12:50:40;100145.97;;;19.38;57.91
38038;BME280;23843;51.320;12.340;2022-10-14T12:53:23;100136.34;;;19.45;57.29
38038;BME280;23843;51.320;12.340;2022-10-14T12:55:52;100141.59;;;19.47;57.14
38038;BME280;23843;51.320;12.340;2022-10-14T12:58:24;100134.41;;;19.38;56.88
38038;BME280;23843;51.320;12.340;2022-10-14T13:00:56;100130.75;;;19.39;56.45
38038;BME280;23843;51.320;12.340;2022-10-14T13:03:24;100135.81;;;19.42;56.38
38038;BME280;23843;51.320;12.340;2022-10-14T13:05:49;100124.34;;;19.40;56.07
38038;BME280;23843;51.320;12.340;2022-10-14T13:08:26;100121.69;;;19.40;56.87
38038;BME280;23843;51.320;12.340;2022-10-14T13:11:07;100119.28;;;19.37;57.17
38038;BME280;23843;51.320;12.340;2022-10-14T13:13:57;100109.09;;;19.31;57.19
38038;BME280;23843;51.320;12.340;2022-10-14T13:16:55;100105.31;;;19.23;56.89
38038;BME280;23843;51.320;12.340;2022-10-14T13:19:43;100111.66;;;19.32;57.28
38038;BME280;23843;51.320;12.340;2022-10-14T13:22:37;100105.84;;;19.37;57.66
38038;BME280;23843;51.320;12.340;2022-10-14T13:25:09;100105.56;;;19.40;56.74
38038;BME280;23843;51.320;12.340;2022-10-14T13:27:41;100105.59;;;19.30;56.80
38038;BME280;23843;51.320;12.340;2022-10-14T13:30:16;100104.47;;;19.23;57.73
38038;BME280;23843;51.320;12.340;2022-10-14T13:32:44;100108.28;;;19.20;57.38
38038;BME280;23843;51.320;12.340;2022-10-14T13:35:17;100101.50;;;19.16;57.72
38038;BME280;23843;51.320;12.340;2022-10-14T13:37:52;100103.97;;;19.00;56.26
38038;BME280;23843;51.320;12.340;2022-10-14T13:40:23;100092.22;;;18.91;57.50
38038;BME280;23843;51.320;12.340;2022-10-14T13:42:51;100095.22;;;18.88;57.45
38038;BME280;23843;51.320;12.340;2022-10-14T13:45:19;100095.75;;;18.82;58.22
38038;BME280;23843;51.320;12.340;2022-10-14T13:47:47;100091.53;;;18.79;58.44
38038;BME280;23843;51.320;12.340;2022-10-14T13:50:16;100092.53;;;18.78;58.38
38038;BME280;23843;51.320;12.340;2022-10-14T13:52:45;100090.38;;;18.72;58.73
38038;BME280;23843;51.320;12.340;2022-10-14T13:55:16;100104.25;;;18.77;58.90
38038;BME280;23843;51.320;12.340;2022-10-14T13:57:42;100092.94;;;18.84;58.65
38038;BME280;23843;51.320;12.340;2022-10-14T14:00:26;100089.25;;;18.85;58.31
38038;BME280;23843;51.320;12.340;2022-10-14T14:02:51;100093.78;;;18.84;58.21
38038;BME280;23843;51.320;12.340;2022-10-14T14:05:18;100093.78;;;18.84;58.68
38038;BME280;23843;51.320;12.340;2022-10-14T14:07:44;100097.75;;;18.80;58.60
38038;BME280;23843;51.320;12.340;2022-10-14T14:10:17;100090.81;;;18.77;59.03
38038;BME280;23843;51.320;12.340;2022-10-14T14:12:43;100085.88;;;18.73;59.08
38038;BME280;23843;51.320;12.340;2022-10-14T14:15:17;100086.44;;;18.67;59.12
38038;BME280;23843;51.320;12.340;2022-10-14T14:17:46;100091.78;;;18.67;59.17
38038;BME280;23843;51.320;12.340;2022-10-14T14:20:11;100085.59;;;18.66;59.40
38038;BME280;23843;51.320;12.340;2022-10-14T14:22:41;100083.03;;;18.65;59.68
38038;BME280;23843;51.320;12.340;2022-10-14T14:25:10;100080.22;;;18.66;59.83
38038;BME280;23843;51.320;12.340;2022-10-14T14:27:42;100076.69;;;18.66;59.86
38038;BME280;23843;51.320;12.340;2022-10-14T14:30:19;100077.38;;;18.68;59.62
38038;BME280;23843;51.320;12.340;2022-10-14T14:32:46;100078.09;;;18.70;59.70
38038;BME280;23843;51.320;12.340;2022-10-14T14:35:12;100082.31;;;18.72;59.63
38038;BME280;23843;51.320;12.340;2022-10-14T14:37:41;100072.28;;;18.74;59.85
38038;BME280;23843;51.320;12.340;2022-10-14T14:40:16;100074.00;;;18.75;59.97
38038;BME280;23843;51.320;12.340;2022-10-14T14:42:42;100069.63;;;18.74;59.93
38038;BME280;23843;51.320;12.340;2022-10-14T14:45:12;100065.97;;;18.75;59.97
38038;BME280;23843;51.320;12.340;2022-10-14T14:47:39;100059.88;;;18.73;59.98
38038;BME280;23843;51.320;12.340;2022-10-14T14:50:11;100052.97;;;18.71;59.94
38038;BME280;23843;51.320;12.340;2022-10-14T14:52:37;100050.41;;;18.69;59.75
38038;BME280;23843;51.320;12.340;2022-10-14T14:55:04;100044.50;;;18.66;60.37
38038;BME280;23843;51.320;12.340;2022-10-14T14:57:29;100039.56;;;18.61;60.34
38038;BME280;23843;51.320;12.340;2022-10-14T14:59:59;100038.13;;;18.57;60.68
38038;BME280;23843;51.320;12.340;2022-10-14T15:02:26;100032.22;;;18.53;60.45
38038;BME280;23843;51.320;12.340;2022-10-14T15:04:59;100030.09;;;18.47;60.84
38038;BME280;23843;51.320;12.340;2022-10-14T15:07:27;100027.13;;;18.40;61.18
38038;BME280;23843;51.320;12.340;2022-10-14T15:09:54;100026.56;;;18.37;61.04
38038;BME280;23843;51.320;12.340;2022-10-14T15:12:22;100028.53;;;18.35;61.43
38038;BME280;23843;51.320;12.340;2022-10-14T15:14:49;100027.00;;;18.32;61.35
38038;BME280;23843;51.320;12.340;2022-10-14T15:17:29;100037.00;;;18.30;61.64
38038;BME280;23843;51.320;12.340;2022-10-14T15:19:55;100029.97;;;18.29;61.50
38038;BME280;23843;51.320;12.340;2022-10-14T15:22:30;100030.22;;;18.26;61.57
38038;BME280;23843;51.320;12.340;2022-10-14T15:25:02;100036.72;;;18.24;61.89
38038;BME280;23843;51.320;12.340;2022-10-14T15:27:40;100038.72;;;18.22;61.62
38038;BME280;23843;51.320;12.340;2022-10-14T15:30:29;100032.78;;;18.18;61.86
38038;BME280;23843;51.320;12.340;2022-10-14T15:32:57;100034.63;;;18.17;62.25
38038;BME280;23843;51.320;12.340;2022-10-14T15:35:23;100026.69;;;18.16;62.16
38038;BME280;23843;51.320;12.340;2022-10-14T15:37:50;100028.53;;;18.15;62.13
38038;BME280;23843;51.320;12.340;2022-10-14T15:40:18;100029.66;;;18.13;62.05
38038;BME280;23843;51.320;12.340;2022-10-14T15:42:44;100028.66;;;18.14;62.05
38038;BME280;23843;51.320;12.340;2022-10-14T15:45:10;100017.25;;;18.12;62.15
38038;BME280;23843;51.320;12.340;2022-10-14T15:47:36;100022.03;;;18.08;62.17
38038;BME280;23843;51.320;12.340;2022-10-14T15:50:06;100016.97;;;18.05;61.93
38038;BME280;23843;51.320;12.340;2022-10-14T15:52:32;100015.41;;;18.03;62.23
38038;BME280;23843;51.320;12.340;2022-10-14T15:54:59;100005.81;;;18.00;62.08
38038;BME280;23843;51.320;12.340;2022-10-14T15:57:25;99996.22;;;17.98;62.20
38038;BME280;23843;51.320;12.340;2022-10-14T15:59:50;99998.03;;;17.97;62.08
38038;BME280;23843;51.320;12.340;2022-10-14T16:02:19;99997.19;;;17.96;62.05
38038;BME280;23843;51.320;12.340;2022-10-14T16:04:46;99991.41;;;17.91;61.96
38038;BME280;23843;51.320;12.340;2022-10-14T16:07:12;99980.25;;;17.86;61.81
38038;BME280;23843;51.320;12.340;2022-10-14T16:09:38;99981.25;;;17.85;61.77
38038;BME280;23843;51.320;12.340;2022-10-14T16:12:07;99979.84;;;17.81;61.77
38038;BME280;23843;51.320;12.340;2022-10-14T16:14:34;99980.22;;;17.76;61.85
38038;BME280;23843;51.320;12.340;2022-10-14T16:17:00;99981.34;;;17.74;61.92
38038;BME280;23843;51.320;12.340;2022-10-14T16:19:25;99979.91;;;17.70;61.92
38038;BME280;23843;51.320;12.340;2022-10-14T16:21:50;99971.44;;;17.65;62.20
38038;BME280;23843;51.320;12.340;2022-10-14T16:24:18;99973.97;;;17.57;62.61
38038;BME280;23843;51.320;12.340;2022-10-14T16:26:44;99980.72;;;17.51;62.96
38038;BME280;23843;51.320;12.340;2022-10-14T16:29:10;99975.91;;;17.45;63.16
38038;BME280;23843;51.320;12.340;2022-10-14T16:31:36;99969.41;;;17.38;63.42
38038;BME280;23843;51.320;12.340;2022-10-14T16:34:01;99972.47;;;17.33;63.54
38038;BME280;23843;51.320;12.340;2022-10-14T16:36:26;99968.41;;;17.29;63.69
38038;BME280;23843;51.320;12.340;2022-10-14T16:38:52;99967.94;;;17.24;64.05
38038;BME280;23843;51.320;12.340;2022-10-14T16:41:17;99970.19;;;17.19;64.29
38038;BME280;23843;51.320;12.340;2022-10-14T16:43:43;99977.75;;;17.14;64.30
38038;BME280;23843;51.320;12.340;2022-10-14T16:46:10;99974.53;;;17.10;64.38
38038;BME280;23843;51.320;12.340;2022-10-14T16:48:36;99977.47;;;17.07;64.28
38038;BME280;23843;51.320;12.340;2022-10-14T16:51:02;99978.44;;;17.06;64.30
38038;BME280;23843;51.320;12.340;2022-10-14T16:53:28;99990.13;;;17.05;64.37
38038;BME280;23843;51.320;12.340;2022-10-14T16:55:55;99987.59;;;17.03;64.67
38038;BME280;23843;51.320;12.340;2022-10-14T16:58:20;99990.25;;;17.03;64.53
38038;BME280;23843;51.320;12.340;2022-10-14T17:00:46;99992.94;;;17.03;64.62
38038;BME280;23843;51.320;12.340;2022-10-14T17:03:12;99992.94;;;17.03;64.57
38038;BME280;23843;51.320;12.340;2022-10-14T17:05:38;99988.44;;;17.04;64.65
38038;BME280;23843;51.320;12.340;2022-10-14T17:08:03;99991.25;;;17.02;64.85
38038;BME280;23843;51.320;12.340;2022-10-14T17:10:29;99989.53;;;17.01;64.86
38038;BME280;23843;51.320;12.340;2022-10-14T17:12:54;99988.69;;;17.01;65.07
38038;BME280;23843;51.320;12.340;2022-10-14T17:15:20;99984.47;;;16.98;65.19
38038;BME280;23843;51.320;12.340;2022-10-14T17:17:45;99988.97;;;16.98;65.31
38038;BME280;23843;51.320;12.340;2022-10-14T17:20:12;99982.78;;;16.97;65.47
38038;BME280;23843;51.320;12.340;2022-10-14T17:22:37;99982.91;;;16.96;65.63
38038;BME280;23843;51.320;12.340;2022-10-14T17:25:03;99997.00;;;16.98;65.51
38038;BME280;23843;51.320;12.340;2022-10-14T17:27:29;99991.06;;;16.94;65.68
38038;BME280;23843;51.320;12.340;2022-10-14T17:29:54;99991.06;;;16.94;65.51